Time;durP1;ratioP1;P1;durP2;ratioP2;P2;SDS_P1;SDS_P2;PMS_P1;PMS_P2;Temp;Humidity;BMP_temperature;BMP_pressure;BME280_temperature;BME280_humidity;BME280_pressure;Samples;Min_cycle;Max_cycle;Signal;HPM_P1;HPM_P2
2022/09/19 00:01:12;;;;;;;21.13;20.00;;;;;;;9.02;100.00;101005.63;4995894;28;20453;-46
2022/09/19 00:03:43;;;;;;;21.00;20.00;;;;;;;9.05;100.00;101007.94;4995485;28;20414;-43
2022/09/19 00:06:13;;;;;;;21.27;20.20;;;;;;;9.03;100.00;101004.59;4994473;28;20454;-41
2022/09/19 00:08:43;;;;;;;20.97;19.97;;;;;;;9.07;100.00;101011.22;4995881;28;20442;-41
2022/09/19 00:11:12;;;;;;;21.70;20.30;;;;;;;9.04;100.00;101012.41;4995656;28;20508;-41
2022/09/19 00:13:44;;;;;;;22.50;21.30;;;;;;;9.04;100.00;101016.91;4995413;28;20927;-42
2022/09/19 00:16:12;;;;;;;22.00;20.70;;;;;;;9.04;100.00;101015.06;4993894;28;20832;-44
2022/09/19 00:18:41;;;;;;;21.67;20.57;;;;;;;9.05;100.00;101022.03;4993408;28;20477;-45
2022/09/19 00:21:09;;;;;;;21.57;20.57;;;;;;;9.08;100.00;101015.53;4985267;28;20458;-45
2022/09/19 00:26:22;;;;;;;22.00;20.70;;;;;;;9.11;100.00;101023.16;5011583;28;20465;-42
2022/09/19 00:28:49;;;;;;;21.90;20.50;;;;;;;9.12;100.00;101019.47;5014664;28;20437;-45
2022/09/19 00:31:19;;;;;;;22.17;20.97;;;;;;;9.11;100.00;101029.28;5014984;28;20500;-44
2022/09/19 00:33:50;;;;;;;21.83;20.83;;;;;;;9.14;100.00;101030.78;5014463;28;20849;-40
2022/09/19 00:36:19;;;;;;;22.10;20.90;;;;;;;9.11;100.00;101039.13;5014372;28;20978;-42
2022/09/19 00:38:47;;;;;;;22.53;21.23;;;;;;;9.15;100.00;101040.41;5014611;28;20469;-42
2022/09/19 00:41:16;;;;;;;21.83;20.43;;;;;;;9.15;100.00;101037.75;5014228;28;20519;-43
2022/09/19 00:43:49;;;;;;;21.23;20.13;;;;;;;9.13;100.00;101037.94;5014515;28;20475;-42
2022/09/19 00:46:19;;;;;;;21.60;20.50;;;;;;;9.14;100.00;101036.91;5014008;28;20487;-41
2022/09/19 00:48:51;;;;;;;22.23;21.03;;;;;;;9.16;100.00;101047.38;5014157;28;20433;-43
2022/09/19 00:51:31;;;;;;;21.67;20.60;;;;;;;9.16;100.00;101056.19;5014237;28;20499;-42
2022/09/19 00:54:06;;;;;;;22.40;20.97;;;;;;;9.15;100.00;101062.53;5014022;28;20437;-40
2022/09/19 00:56:35;;;;;;;22.47;21.10;;;;;;;9.18;100.00;101061.31;5013692;28;20468;-42
2022/09/19 00:59:03;;;;;;;21.80;20.70;;;;;;;9.15;100.00;101059.03;5014277;28;20481;-44
2022/09/19 01:01:31;;;;;;;21.90;20.80;;;;;;;9.12;100.00;101062.88;5013866;28;20449;-41
2022/09/19 01:04:01;;;;;;;22.30;21.00;;;;;;;9.13;100.00;101067.19;5013903;28;20429;-40
2022/09/19 01:06:48;;;;;;;22.20;20.90;;;;;;;9.12;100.00;101057.56;5013602;28;20469;-44
2022/09/19 01:09:44;;;;;;;22.10;20.90;;;;;;;9.12;100.00;101054.06;5013801;28;20814;-43
2022/09/19 01:12:27;;;;;;;22.27;20.87;;;;;;;9.06;100.00;101058.28;5012811;28;20464;-42
2022/09/19 01:15:13;;;;;;;22.50;21.30;;;;;;;9.01;100.00;101059.81;5013215;28;20461;-41
2022/09/19 01:17:45;;;;;;;22.30;21.20;;;;;;;8.99;100.00;101056.53;5013754;28;20468;-41
2022/09/19 01:20:52;;;;;;;22.20;21.10;;;;;;;8.99;100.00;101056.53;5007224;28;20448;-40
2022/09/19 01:23:41;;;;;;;25.17;21.87;;;;;;;9.01;100.00;101059.81;5012552;28;20428;-46
2022/09/19 01:26:34;;;;;;;22.40;21.10;;;;;;;9.00;100.00;101059.00;5013111;28;20857;-41
2022/09/19 01:29:08;;;;;;;22.20;20.90;;;;;;;9.02;100.00;101067.59;5013580;28;20483;-41
2022/09/19 01:31:40;;;;;;;22.63;21.33;;;;;;;9.02;100.00;101070.25;5013519;28;20492;-40
2022/09/19 01:34:13;;;;;;;22.03;20.63;;;;;;;9.04;100.00;101065.63;5013238;28;20431;-43
2022/09/19 01:36:43;;;;;;;22.00;20.90;;;;;;;9.03;100.00;101079.06;5014156;28;20473;-40
2022/09/19 01:39:12;;;;;;;21.70;20.60;;;;;;;9.00;100.00;101074.94;5013577;28;21005;-41
2022/09/19 01:41:47;;;;;;;21.43;20.40;;;;;;;9.00;100.00;101071.44;5013281;28;20457;-43
2022/09/19 01:44:18;;;;;;;21.50;20.50;;;;;;;9.03;100.00;101071.09;5013499;28;20869;-42
2022/09/19 01:46:53;;;;;;;22.37;20.87;;;;;;;9.06;100.00;101074.22;5013116;28;20503;-43
2022/09/19 01:49:38;;;;;;;22.57;21.20;;;;;;;9.08;100.00;101068.75;5013392;28;20421;-44
2022/09/19 01:52:17;;;;;;;21.30;20.10;;;;;;;9.08;100.00;101082.84;5012966;28;20437;-41
2022/09/19 01:54:53;;;;;;;21.63;20.43;;;;;;;9.08;100.00;101077.53;5007002;28;20465;-42
2022/09/19 01:57:31;;;;;;;22.00;20.77;;;;;;;9.12;100.00;101078.84;4996884;28;21004;-43
2022/09/19 02:00:10;;;;;;;22.10;20.80;;;;;;;9.12;100.00;101078.84;5004074;28;20429;-40
2022/09/19 02:02:48;;;;;;;22.20;21.00;;;;;;;9.14;100.00;101084.00;4992950;28;20458;-42
2022/09/19 02:05:25;;;;;;;22.60;21.20;;;;;;;9.12;100.00;101084.16;4996873;28;20465;-42
2022/09/19 02:08:00;;;;;;;22.13;21.03;;;;;;;9.10;100.00;101088.84;4995301;28;20426;-43
2022/09/19 02:10:34;;;;;;;21.70;20.60;;;;;;;9.12;100.00;101101.97;4999579;28;21094;-42
2022/09/19 02:13:08;;;;;;;22.60;20.97;;;;;;;9.11;100.00;101098.47;5009620;28;20487;-41
2022/09/19 02:15:41;;;;;;;21.90;20.60;;;;;;;9.10;100.00;101103.97;5012581;28;20465;-42
2022/09/19 02:18:16;;;;;;;22.77;21.00;;;;;;;9.08;100.00;101095.34;5013030;28;20476;-42
2022/09/19 02:20:44;;;;;;;21.73;20.63;;;;;;;9.10;100.00;101101.31;5001688;28;20512;-45
2022/09/19 02:23:19;;;;;;;23.00;21.43;;;;;;;9.12;100.00;101102.78;5010513;28;20437;-46
2022/09/19 02:25:49;;;;;;;22.30;21.00;;;;;;;9.12;100.00;101110.78;5012218;28;20531;-40
2022/09/19 02:28:22;;;;;;;21.80;20.40;;;;;;;9.09;100.00;101115.63;5012679;28;20425;-40
2022/09/19 02:30:51;;;;;;;21.90;20.73;;;;;;;9.15;100.00;101117.56;5012226;28;20464;-42
2022/09/19 02:33:19;;;;;;;21.50;20.50;;;;;;;9.14;100.00;101111.41;5012302;28;20433;-40
2022/09/19 02:35:51;;;;;;;21.20;20.20;;;;;;;9.16;100.00;101109.41;5011693;28;20618;-41
2022/09/19 02:38:26;;;;;;;21.97;20.37;;;;;;;9.20;100.00;101109.91;5012502;28;20469;-42
2022/09/19 02:41:02;;;;;;;22.23;21.03;;;;;;;9.25;100.00;101110.19;5012555;28;20511;-42
2022/09/19 02:43:38;;;;;;;22.23;20.87;;;;;;;9.28;100.00;101110.66;5012288;28;20499;-43
2022/09/19 02:46:14;;;;;;;23.13;21.70;;;;;;;9.27;100.00;101108.16;5012072;28;20596;-41
2022/09/19 02:48:55;;;;;;;23.03;21.37;;;;;;;9.25;100.00;101110.19;5012474;28;20429;-42
2022/09/19 02:51:28;;;;;;;23.77;21.73;;;;;;;9.24;100.00;101119.16;5012327;28;20519;-40
2022/09/19 02:54:03;;;;;;;22.53;21.23;;;;;;;9.23;100.00;101110.34;5012116;28;20560;-41
2022/09/19 02:56:34;;;;;;;23.93;22.07;;;;;;;9.22;100.00;101115.84;5011760;28;20542;-42
2022/09/19 02:59:06;;;;;;;22.90;21.13;;;;;;;9.23;100.00;101110.34;5012052;28;20905;-41
2022/09/19 03:01:40;;;;;;;22.93;21.30;;;;;;;9.26;100.00;101115.31;5012045;28;20981;-40
2022/09/19 03:04:14;;;;;;;22.60;21.03;;;;;;;9.29;100.00;101125.59;5012037;28;20517;-44
2022/09/19 03:06:50;;;;;;;23.13;21.70;;;;;;;9.29;100.00;101122.94;5011768;28;20433;-40
2022/09/19 03:09:21;;;;;;;22.73;21.13;;;;;;;9.29;100.00;101122.94;5012061;28;20480;-40
2022/09/19 03:11:55;;;;;;;22.33;21.07;;;;;;;9.32;100.00;101127.91;5013853;28;20444;-40
2022/09/19 03:14:23;;;;;;;24.07;22.20;;;;;;;9.37;100.00;101128.22;5015383;28;20429;-42
2022/09/19 03:16:56;;;;;;;23.53;21.80;;;;;;;9.40;100.00;101124.34;5015947;28;20432;-41
2022/09/19 03:19:24;;;;;;;23.63;22.00;;;;;;;9.41;100.00;101132.16;5010927;28;20487;-42
2022/09/19 03:21:54;;;;;;;22.40;21.10;;;;;;;9.42;100.00;101135.63;5007249;28;20855;-41
2022/09/19 03:24:22;;;;;;;23.80;21.90;;;;;;;9.38;100.00;101132.50;5015361;28;20531;-41
2022/09/19 03:26:50;;;;;;;23.70;21.90;;;;;;;9.34;100.00;101138.38;5015905;28;20479;-41
2022/09/19 03:29:18;;;;;;;22.67;21.20;;;;;;;9.34;100.00;101133.06;5015634;28;20421;-42
2022/09/19 03:31:46;;;;;;;24.17;22.40;;;;;;;9.33;100.00;101145.53;5030471;22;20885;-45
2022/09/19 03:34:16;;;;;;;24.23;22.47;;;;;;;9.33;100.00;101145.53;5007005;28;20445;-44
2022/09/19 03:36:43;;;;;;;23.97;21.93;;;;;;;9.35;100.00;101135.53;5015339;28;20495;-49
2022/09/19 03:39:11;;;;;;;23.43;21.63;;;;;;;9.36;100.00;101139.84;5010742;28;20534;-49
2022/09/19 03:41:39;;;;;;;23.70;21.90;;;;;;;9.37;100.00;101146.84;5012919;28;20461;-49
2022/09/19 03:44:07;;;;;;;22.93;21.63;;;;;;;9.38;100.00;101145.81;5014677;28;20857;-49
2022/09/19 03:46:35;;;;;;;23.67;22.17;;;;;;;9.36;100.00;101149.66;5014475;28;20472;-50
2022/09/19 03:49:03;;;;;;;23.73;21.93;;;;;;;9.38;100.00;101148.47;5014726;28;21003;-49
2022/09/19 03:51:33;;;;;;;23.47;21.80;;;;;;;9.39;100.00;101146.66;5015129;28;20499;-47
2022/09/19 03:54:01;;;;;;;24.17;22.40;;;;;;;9.39;100.00;101152.81;5014890;28;20976;-47
2022/09/19 03:56:29;;;;;;;23.80;22.00;;;;;;;9.39;100.00;101152.81;5014492;28;20650;-45
2022/09/19 03:58:56;;;;;;;23.97;21.97;;;;;;;9.39;100.00;101155.47;5014882;28;20534;-45
2022/09/19 04:01:24;;;;;;;24.40;21.57;;;;;;;9.39;100.00;101155.47;5014962;28;20791;-50
2022/09/19 04:03:52;;;;;;;24.57;22.23;;;;;;;9.40;100.00;101157.13;5014950;28;20441;-44
2022/09/19 04:06:20;;;;;;;25.00;23.33;;;;;;;9.40;100.00;101162.47;5014399;28;20468;-53
2022/09/19 04:08:49;;;;;;;24.63;22.90;;;;;;;9.42;100.00;101164.91;5014919;28;20433;-50
2022/09/19 04:11:16;;;;;;;26.33;22.47;;;;;;;9.43;100.00;101163.94;5014632;28;20456;-51
2022/09/19 04:13:44;;;;;;;24.40;22.20;;;;;;;9.46;100.00;101168.91;5014413;28;20437;-52
2022/09/19 04:16:11;;;;;;;23.70;21.60;;;;;;;9.48;100.00;101174.84;5014268;28;20607;-46
2022/09/19 04:18:45;;;;;;;23.90;21.73;;;;;;;9.51;100.00;101173.66;5011036;28;20507;-49
2022/09/19 04:21:13;;;;;;;30.43;23.13;;;;;;;9.52;100.00;101173.50;5010796;28;20778;-48
2022/09/19 04:23:40;;;;;;;23.93;21.50;;;;;;;9.55;100.00;101174.97;5013514;28;20433;-54
2022/09/19 04:26:10;;;;;;;23.87;21.57;;;;;;;9.56;100.00;101179.31;5014224;28;21048;-46
2022/09/19 04:28:38;;;;;;;24.40;22.27;;;;;;;9.56;100.00;101185.44;5014863;28;20437;-49
2022/09/19 04:31:08;;;;;;;24.63;22.67;;;;;;;9.56;100.00;101188.09;5014338;28;20437;-47
2022/09/19 04:33:37;;;;;;;23.23;21.60;;;;;;;9.53;100.00;101185.78;5014372;28;20433;-51
2022/09/19 04:36:05;;;;;;;23.57;21.67;;;;;;;9.54;100.00;101189.28;5013844;28;20525;-45
2022/09/19 04:38:34;;;;;;;24.40;22.20;;;;;;;9.51;100.00;101192.31;5014495;28;20432;-45
2022/09/19 04:41:02;;;;;;;24.40;22.20;;;;;;;9.50;100.00;101196.00;5014105;28;20477;-46
2022/09/19 04:43:32;;;;;;;25.00;22.73;;;;;;;9.51;100.00;101193.13;5014065;28;20484;-48
2022/09/19 04:46:01;;;;;;;24.50;22.43;;;;;;;9.52;100.00;101200.13;5013645;28;21148;-46
2022/09/19 04:48:29;;;;;;;24.23;22.30;;;;;;;9.52;100.00;101188.66;5014039;28;20473;-51
2022/09/19 04:50:57;;;;;;;25.63;23.40;;;;;;;9.51;100.00;101190.47;5013832;28;20496;-46
2022/09/19 04:53:27;;;;;;;25.27;23.23;;;;;;;9.49;100.00;101197.81;5013636;28;20852;-47
2022/09/19 04:55:55;;;;;;;23.83;22.23;;;;;;;9.48;100.00;101195.31;5013588;28;20522;-47
2022/09/19 04:58:24;;;;;;;23.20;21.40;;;;;;;9.44;100.00;101198.34;5013949;28;20844;-44
2022/09/19 05:00:55;;;;;;;23.30;21.43;;;;;;;9.41;100.00;101205.84;5013825;28;21052;-49
2022/09/19 05:03:25;;;;;;;25.73;23.20;;;;;;;9.42;100.00;101215.50;5013628;28;20529;-45
2022/09/19 05:05:53;;;;;;;25.70;23.60;;;;;;;9.41;100.00;101209.34;5013086;28;20531;-48
2022/09/19 05:08:25;;;;;;;24.70;23.30;;;;;;;9.40;100.00;101223.69;5013872;28;20776;-46
2022/09/19 05:10:54;;;;;;;25.40;23.20;;;;;;;9.40;100.00;101221.00;5013783;28;20483;-50
2022/09/19 05:13:22;;;;;;;27.03;24.33;;;;;;;9.43;100.00;101218.00;5013312;28;20436;-46
2022/09/19 05:15:51;;;;;;;26.50;23.57;;;;;;;9.43;100.00;101222.50;5013146;28;20469;-45
2022/09/19 05:18:21;;;;;;;24.13;22.37;;;;;;;9.45;100.00;101221.31;5013317;28;20433;-48
2022/09/19 05:20:49;;;;;;;25.53;23.23;;;;;;;9.50;100.00;101222.63;5003524;28;20481;-46
2022/09/19 05:23:17;;;;;;;24.77;22.90;;;;;;;9.53;100.00;101220.41;5013210;28;20449;-51
2022/09/19 05:25:45;;;;;;;26.87;23.13;;;;;;;9.57;100.00;101228.88;5013121;28;20465;-46
2022/09/19 05:28:13;;;;;;;23.93;21.97;;;;;;;9.57;100.00;101218.22;5013395;28;20467;-45
2022/09/19 05:30:50;;;;;;;24.03;21.77;;;;;;;9.60;100.00;101225.84;5013196;28;20433;-47
2022/09/19 05:33:21;;;;;;;24.43;22.70;;;;;;;9.63;100.00;101234.31;5013073;28;20861;-51
2022/09/19 05:35:50;;;;;;;25.03;22.83;;;;;;;9.65;100.00;101231.47;5012859;28;20881;-48
2022/09/19 05:38:17;;;;;;;23.80;21.87;;;;;;;9.97;100.00;101228.53;5013241;28;20437;-47
2022/09/19 05:40:45;;;;;;;25.67;21.40;;;;;;;10.72;100.00;101233.75;5012945;28;20468;-48
2022/09/19 05:43:13;;;;;;;23.33;20.83;;;;;;;11.41;99.71;101237.66;5012667;28;20489;-45
2022/09/19 05:45:41;;;;;;;21.97;20.30;;;;;;;12.20;95.01;101228.50;5012610;28;20882;-46
2022/09/19 05:48:09;;;;;;;23.10;20.70;;;;;;;12.83;93.03;101230.09;5012983;28;20850;-47
2022/09/19 05:50:37;;;;;;;23.73;21.67;;;;;;;13.54;90.95;101231.34;5012981;28;20437;-46
2022/09/19 05:55:51;;;;;;;25.10;22.60;;;;;;;14.66;97.74;101237.50;5012386;28;20465;-47
2022/09/19 05:58:19;;;;;;;24.93;22.90;;;;;;;14.86;100.00;101229.38;5012978;28;20441;-43
2022/09/19 06:00:47;;;;;;;24.77;22.73;;;;;;;14.64;100.00;101244.94;5012614;28;20472;-48
2022/09/19 06:03:16;;;;;;;23.27;21.83;;;;;;;14.49;100.00;101244.34;5012607;28;20456;-47
2022/09/19 06:05:48;;;;;;;23.30;21.57;;;;;;;14.21;100.00;101238.41;5012303;28;20523;-44
2022/09/19 06:08:19;;;;;;;28.73;23.20;;;;;;;14.27;100.00;101238.41;5012690;28;20425;-44
2022/09/19 06:10:47;;;;;;;30.83;23.03;;;;;;;14.74;100.00;101247.19;5012611;28;20437;-46
2022/09/19 06:13:19;;;;;;;25.10;23.10;;;;;;;14.41;100.00;101241.91;5012751;28;20437;-51
2022/09/19 06:15:47;;;;;;;24.73;22.73;;;;;;;14.29;100.00;101248.91;5012189;28;20543;-51
2022/09/19 06:18:15;;;;;;;25.50;23.10;;;;;;;13.83;100.00;101251.59;5012305;28;20495;-51
2022/09/19 06:20:44;;;;;;;24.80;22.90;;;;;;;13.95;100.00;101259.88;5002348;28;20473;-50
2022/09/19 06:23:13;;;;;;;25.30;23.03;;;;;;;13.48;100.00;101258.13;5011875;28;21043;-52
2022/09/19 06:25:42;;;;;;;26.87;24.27;;;;;;;13.41;100.00;101249.28;5011580;28;20519;-46
2022/09/19 06:28:11;;;;;;;26.33;23.77;;;;;;;13.19;100.00;101252.09;5012446;28;20440;-50
2022/09/19 06:30:39;;;;;;;25.50;23.20;;;;;;;13.25;100.00;101247.78;5012394;28;20436;-51
2022/09/19 06:33:07;;;;;;;29.70;25.17;;;;;;;13.05;100.00;101254.91;5012296;28;20472;-51
2022/09/19 06:35:35;;;;;;;26.73;24.60;;;;;;;12.84;100.00;101255.84;5011727;28;20472;-52
2022/09/19 06:38:04;;;;;;;27.00;24.50;;;;;;;12.76;100.00;101254.16;5012179;28;20433;-51
2022/09/19 06:40:32;;;;;;;28.10;25.40;;;;;;;12.72;100.00;101266.25;5012153;28;20473;-51
2022/09/19 06:43:03;;;;;;;28.53;25.20;;;;;;;12.61;100.00;101266.00;5011923;28;20468;-54
2022/09/19 06:45:31;;;;;;;26.90;24.80;;;;;;;12.62;100.00;101278.34;5011497;28;20870;-52
2022/09/19 06:47:59;;;;;;;26.53;24.50;;;;;;;12.58;100.00;101277.91;5011876;28;20433;-45
2022/09/19 06:50:27;;;;;;;29.27;26.53;;;;;;;12.55;100.00;101278.31;5011980;28;20511;-45
2022/09/19 06:52:56;;;;;;;30.03;25.60;;;;;;;12.60;100.00;101280.41;5011884;28;20523;-50
2022/09/19 06:55:25;;;;;;;27.50;24.70;;;;;;;12.65;100.00;101276.13;5011426;28;20511;-48
2022/09/19 06:57:56;;;;;;;26.90;24.70;;;;;;;13.23;100.00;101285.47;5012080;28;20443;-45
2022/09/19 07:00:26;;;;;;;27.97;25.60;;;;;;;12.99;100.00;101291.31;5011920;28;20441;-50
2022/09/19 07:02:55;;;;;;;28.90;26.07;;;;;;;13.15;100.00;101287.50;5012046;28;20499;-45
2022/09/19 07:05:22;;;;;;;28.63;25.60;;;;;;;13.07;100.00;101282.28;5011643;28;20547;-45
2022/09/19 07:07:51;;;;;;;27.53;25.23;;;;;;;12.98;100.00;101286.16;5011867;28;20436;-46
2022/09/19 07:10:20;;;;;;;27.40;25.23;;;;;;;12.94;100.00;101283.06;5012081;28;20441;-44
2022/09/19 07:12:52;;;;;;;27.73;25.40;;;;;;;12.94;100.00;101285.72;5011579;28;20453;-50
2022/09/19 07:15:25;;;;;;;27.40;25.10;;;;;;;12.98;100.00;101297.72;5011455;28;20544;-44
2022/09/19 07:17:54;;;;;;;28.10;25.60;;;;;;;13.10;100.00;101290.78;5011963;28;20437;-45
2022/09/19 07:20:22;;;;;;;28.70;26.07;;;;;;;13.22;100.00;101291.03;5002009;28;20433;-49
2022/09/19 07:22:59;;;;;;;27.33;25.43;;;;;;;13.30;100.00;101297.03;5011527;28;20453;-49
2022/09/19 07:25:28;;;;;;;27.90;25.50;;;;;;;13.38;100.00;101297.91;5011355;28;20511;-44
2022/09/19 07:27:57;;;;;;;28.00;25.90;;;;;;;13.53;100.00;101296.69;5011709;28;20500;-44
2022/09/19 07:30:32;;;;;;;26.27;24.47;;;;;;;13.72;100.00;101303.13;5011779;28;20790;-44
2022/09/19 07:33:01;;;;;;;28.63;26.33;;;;;;;13.69;100.00;101307.03;5011796;28;20850;-44
2022/09/19 07:35:30;;;;;;;27.47;25.17;;;;;;;13.79;100.00;101306.66;5011205;28;20457;-47
2022/09/19 07:38:03;;;;;;;27.03;24.80;;;;;;;14.10;100.00;101306.06;5011631;28;20790;-44
2022/09/19 07:40:32;;;;;;;27.00;25.27;;;;;;;14.46;100.00;101311.03;5011661;28;20444;-49
2022/09/19 07:43:01;;;;;;;29.80;27.20;;;;;;;14.62;100.00;101321.34;5011412;28;20453;-44
2022/09/19 07:45:33;;;;;;;27.80;25.20;;;;;;;14.91;100.00;101318.16;5011193;28;20453;-47
2022/09/19 07:48:02;;;;;;;29.13;27.00;;;;;;;15.21;100.00;101313.94;5011647;28;20429;-49
2022/09/19 07:50:30;;;;;;;26.67;24.97;;;;;;;15.33;100.00;101308.72;5011385;28;20448;-48
2022/09/19 07:52:59;;;;;;;29.23;26.57;;;;;;;15.48;100.00;101320.06;5011455;28;20606;-46
2022/09/19 07:55:27;;;;;;;26.30;24.60;;;;;;;15.38;100.00;101317.78;5011061;28;20461;-46
2022/09/19 07:57:56;;;;;;;27.03;25.03;;;;;;;15.43;100.00;101319.84;5012037;28;20429;-52
2022/09/19 08:00:25;;;;;;;26.33;24.43;;;;;;;15.46;100.00;101319.41;5014996;28;20793;-54
2022/09/19 08:02:58;;;;;;;25.83;23.93;;;;;;;15.38;100.00;101319.66;5014497;28;20507;-49
2022/09/19 08:05:27;;;;;;;27.50;24.67;;;;;;;15.31;100.00;101321.56;5014528;28;20515;-49
2022/09/19 08:07:56;;;;;;;26.07;24.00;;;;;;;15.26;100.00;101329.44;5015058;28;20495;-47
2022/09/19 08:10:23;;;;;;;27.33;25.03;;;;;;;15.25;100.00;101323.25;5014680;28;20436;-49
2022/09/19 08:12:51;;;;;;;25.20;23.50;;;;;;;15.23;100.00;101330.66;5014515;28;20453;-52
2022/09/19 08:15:20;;;;;;;25.83;23.43;;;;;;;15.19;100.00;101336.69;5014214;28;20492;-45
2022/09/19 08:17:58;;;;;;;26.30;23.77;;;;;;;15.29;100.00;101337.88;5014623;28;20675;-47
2022/09/19 08:20:28;;;;;;;24.43;22.63;;;;;;;15.41;100.00;101338.84;5004869;28;20483;-49
2022/09/19 08:22:57;;;;;;;26.03;23.87;;;;;;;15.47;100.00;101339.94;5014302;28;20531;-46
2022/09/19 08:25:24;;;;;;;25.80;24.00;;;;;;;15.54;100.00;101331.81;5013999;28;20862;-47
2022/09/19 08:27:52;;;;;;;24.27;22.50;;;;;;;15.67;100.00;101340.63;5014447;28;20850;-46
2022/09/19 08:30:20;;;;;;;24.10;22.67;;;;;;;15.58;100.00;101339.25;5014300;28;20491;-48
2022/09/19 08:32:49;;;;;;;24.30;22.87;;;;;;;15.71;100.00;101349.09;5014016;28;20515;-46
2022/09/19 08:35:19;;;;;;;24.70;23.00;;;;;;;15.59;100.00;101345.44;5013846;28;20456;-47
2022/09/19 08:37:47;;;;;;;24.33;22.73;;;;;;;15.55;100.00;101350.44;5014375;28;20495;-47
2022/09/19 08:40:25;;;;;;;25.20;23.40;;;;;;;15.65;100.00;101350.75;5014398;28;20471;-46
2022/09/19 08:43:05;;;;;;;23.73;22.53;;;;;;;15.59;100.00;101346.25;5014204;28;20476;-51
2022/09/19 08:46:04;;;;;;;23.70;22.30;;;;;;;15.62;96.44;101351.19;5013793;28;20994;-47
2022/09/19 08:48:41;;;;;;;23.47;22.33;;;;;;;15.74;95.24;101351.38;5014267;28;20429;-46
2022/09/19 08:51:15;;;;;;;23.23;21.90;;;;;;;15.72;97.29;101354.25;5013997;28;20440;-48
2022/09/19 08:53:47;;;;;;;23.13;22.00;;;;;;;15.61;92.47;101359.50;5014105;28;20496;-53
2022/09/19 08:56:18;;;;;;;22.67;21.50;;;;;;;15.65;93.71;101350.75;5013857;28;20489;-46
2022/09/19 08:58:49;;;;;;;22.53;21.30;;;;;;;15.68;89.46;101361.09;5013984;28;20952;-49
2022/09/19 09:01:19;;;;;;;22.77;21.50;;;;;;;15.81;91.05;101355.66;5014076;28;21044;-52
2022/09/19 09:03:58;;;;;;;22.77;21.67;;;;;;;15.96;91.47;101358.88;5013820;28;20435;-48
2022/09/19 09:06:38;;;;;;;24.03;22.80;;;;;;;16.12;90.89;101359.38;5013494;28;20551;-48
2022/09/19 09:09:13;;;;;;;23.03;21.83;;;;;;;16.16;88.40;101360.63;5013731;28;20436;-47
2022/09/19 09:11:56;;;;;;;23.83;22.40;;;;;;;16.28;89.80;101365.06;5013667;28;21137;-52
2022/09/19 09:14:30;;;;;;;23.40;22.40;;;;;;;16.11;84.13;101363.13;5013040;28;20425;-46
2022/09/19 09:17:15;;;;;;;22.93;21.87;;;;;;;16.04;83.39;101363.97;5013846;28;20429;-51
2022/09/19 09:19:57;;;;;;;23.33;22.23;;;;;;;16.15;83.17;101370.56;5003830;28;21087;-49
2022/09/19 09:22:29;;;;;;;24.43;22.97;;;;;;;16.31;84.45;101369.16;5013276;28;20576;-49
2022/09/19 09:25:02;;;;;;;22.97;21.90;;;;;;;16.38;85.97;101368.09;5013199;28;20460;-46
2022/09/19 09:27:36;;;;;;;22.40;21.10;;;;;;;16.44;84.30;101367.22;5013501;28;20433;-49
2022/09/19 09:30:16;;;;;;;22.97;21.67;;;;;;;16.64;84.35;101372.44;5013374;28;20520;-49
2022/09/19 09:32:49;;;;;;;22.10;20.90;;;;;;;16.85;85.04;101366.66;5013207;28;20465;-51
2022/09/19 09:35:28;;;;;;;23.43;22.30;;;;;;;16.81;83.50;101380.81;5013219;28;20469;-47
2022/09/19 09:38:03;;;;;;;22.10;21.07;;;;;;;16.76;81.77;101384.16;5013290;28;20437;-53
2022/09/19 09:43:35;;;;;;;21.33;20.40;;;;;;;16.94;77.50;101381.47;5013020;28;20476;-49
2022/09/19 09:46:11;;;;;;;20.77;19.97;;;;;;;17.00;76.99;101371.69;5013362;28;20473;-55
2022/09/19 09:48:40;;;;;;;21.30;20.40;;;;;;;17.17;77.21;101361.16;5013125;28;20456;-55
2022/09/19 09:51:21;;;;;;;20.03;19.23;;;;;;;17.31;78.08;101362.63;5013052;28;20444;-54
2022/09/19 09:57:03;;;;;;;19.47;18.67;;;;;;;16.97;77.52;101362.19;5011818;28;20452;-53
2022/09/19 10:05:30;;;;;;;19.03;18.27;;;;;;;16.78;78.57;101355.13;5012497;28;20468;-48
2022/09/19 10:08:05;;;;;;;20.83;19.60;;;;;;;16.95;80.09;101358.88;5012696;28;20483;-54
2022/09/19 10:10:38;;;;;;;19.30;18.60;;;;;;;16.98;80.77;101363.00;5013037;28;20440;-47
2022/09/19 10:13:18;;;;;;;18.33;17.73;;;;;;;16.89;79.24;101361.66;5012358;28;21032;-55
2022/09/19 10:15:54;;;;;;;18.97;17.97;;;;;;;16.75;77.32;101360.13;5012415;28;20460;-51
2022/09/19 10:18:27;;;;;;;18.57;17.87;;;;;;;16.79;78.24;101356.75;5012333;28;20479;-55
2022/09/19 10:20:56;;;;;;;18.10;17.27;;;;;;;16.78;78.43;101357.00;5003133;28;20850;-55
2022/09/19 10:23:26;;;;;;;17.70;17.07;;;;;;;16.85;79.19;101353.19;5012231;28;20473;-56
2022/09/19 10:26:01;;;;;;;17.20;16.60;;;;;;;16.92;76.62;101355.81;5011949;28;20464;-55
2022/09/19 10:28:33;;;;;;;17.63;17.13;;;;;;;17.04;78.88;101359.41;5012266;28;20952;-55
2022/09/19 10:31:04;;;;;;;16.30;15.80;;;;;;;16.78;76.80;101367.78;5011968;28;20491;-55
2022/09/19 10:33:40;;;;;;;16.90;16.30;;;;;;;16.91;76.39;101355.00;5012008;28;20532;-53
2022/09/19 10:36:20;;;;;;;17.10;16.50;;;;;;;17.07;74.52;101345.50;5011841;28;20471;-51
2022/09/19 10:38:53;;;;;;;15.90;15.30;;;;;;;17.27;75.05;101348.78;5012185;28;20433;-53
2022/09/19 10:41:25;;;;;;;15.70;15.10;;;;;;;17.34;74.03;101351.41;5011906;28;20539;-47
2022/09/19 10:43:56;;;;;;;13.73;13.33;;;;;;;16.98;70.52;101354.94;5012078;28;20473;-54
2022/09/19 10:46:31;;;;;;;13.70;13.30;;;;;;;17.14;69.57;101354.34;5011788;28;20889;-51
2022/09/19 10:48:59;;;;;;;13.73;13.33;;;;;;;17.41;69.44;101352.16;5012197;28;20432;-53
2022/09/19 10:51:32;;;;;;;14.00;13.60;;;;;;;17.57;68.18;101362.34;5011929;28;20514;-56
2022/09/19 10:54:11;;;;;;;13.70;13.00;;;;;;;17.60;66.13;101370.78;5011937;28;20818;-50
2022/09/19 10:56:41;;;;;;;13.47;13.07;;;;;;;17.54;64.09;101362.75;5011540;28;20475;-56
2022/09/19 10:59:25;;;;;;;13.30;12.80;;;;;;;17.48;66.57;101369.06;5012111;28;20845;-55
2022/09/19 11:02:19;;;;;;;12.40;12.00;;;;;;;17.74;63.64;101376.03;5011866;28;20499;-56
2022/09/19 11:04:59;;;;;;;12.73;12.33;;;;;;;17.92;65.52;101376.78;5011679;28;20463;-56
2022/09/19 11:07:30;;;;;;;12.00;11.60;;;;;;;18.09;65.82;101380.50;5011908;28;20922;-56
2022/09/19 11:10:01;;;;;;;12.23;11.83;;;;;;;18.17;66.97;101385.56;5012057;28;20447;-56
2022/09/19 11:12:31;;;;;;;11.67;11.17;;;;;;;18.13;67.24;101380.84;5011464;28;20506;-55
2022/09/19 11:15:00;;;;;;;12.43;11.93;;;;;;;18.19;68.83;101382.63;5011545;28;20507;-56
2022/09/19 11:17:58;;;;;;;11.10;10.70;;;;;;;17.93;68.06;101393.81;5012187;28;20432;-54
2022/09/19 11:20:38;;;;;;;10.93;10.53;;;;;;;17.97;66.98;101385.03;5001418;28;20503;-56
2022/09/19 11:23:29;;;;;;;9.47;9.07;;;;;;;18.01;65.36;101390.81;5011280;28;20480;-57
2022/09/19 11:26:06;;;;;;;8.43;8.20;;;;;;;18.20;65.73;101400.47;5008106;28;20472;-54
2022/09/19 11:28:51;;;;;;;8.60;8.30;;;;;;;18.14;64.34;101391.41;5011749;28;20436;-57
2022/09/19 11:31:33;;;;;;;8.47;8.20;;;;;;;18.11;67.04;101393.75;5011402;28;20464;-55
2022/09/19 11:34:35;;;;;;;7.60;7.40;;;;;;;18.30;65.12;101398.03;5014909;28;20467;-56
2022/09/19 11:37:38;;;;;;;7.00;6.80;;;;;;;18.26;63.59;101394.16;5015833;28;20460;-55
2022/09/19 11:40:22;;;;;;;6.40;6.20;;;;;;;18.27;61.06;101395.81;5015627;28;20436;-56
2022/09/19 11:43:01;;;;;;;6.50;6.20;;;;;;;18.15;61.52;101393.06;5015089;28;20448;-55
2022/09/19 11:45:42;;;;;;;6.63;6.43;;;;;;;18.18;61.50;101389.91;5014983;28;20460;-56
2022/09/19 11:48:27;;;;;;;6.50;6.30;;;;;;;18.38;61.05;101384.19;5015215;28;20455;-57